Time;durP1;ratioP1;P1;durP2;ratioP2;P2;SDS_P1;SDS_P2;PMS_P1;PMS_P2;Temp;Humidity;BMP_temperature;BMP_pressure;BME280_temperature;BME280_humidity;BME280_pressure;Samples;Min_cycle;Max_cycle;Signal;HPM_P1;HPM_P2
2022/08/31 00:06:32;;;;;;;5.10;3.05;;;25.50;57.60;;;;;;6133538;28;81078;-62
2022/08/31 00:09:33;;;;;;;7.57;2.88;;;25.50;57.50;;;;;;6150015;28;80986;-61
2022/08/31 00:12:33;;;;;;;4.22;2.40;;;25.40;57.60;;;;;;6131144;28;80879;-61
2022/08/31 00:15:34;;;;;;;5.60;3.22;;;25.40;57.70;;;;;;6141159;28;83333;-61
2022/08/31 00:18:34;;;;;;;3.53;2.70;;;25.40;57.80;;;;;;6143429;28;81474;-61
2022/08/31 00:21:35;;;;;;;6.50;2.90;;;25.40;57.60;;;;;;6135917;28;83555;-61
2022/08/31 00:24:35;;;;;;;5.82;2.63;;;25.40;57.70;;;;;;6152664;28;80263;-61
2022/08/31 00:27:36;;;;;;;3.42;2.80;;;25.40;57.80;;;;;;6127883;28;83004;-61
2022/08/31 00:30:36;;;;;;;4.18;3.20;;;25.40;57.80;;;;;;6140801;28;80251;-61
2022/08/31 00:33:37;;;;;;;4.38;3.13;;;25.40;57.70;;;;;;6141375;28;80403;-61
2022/08/31 00:36:37;;;;;;;3.75;2.80;;;25.40;57.60;;;;;;6149182;28;80742;-61
2022/08/31 00:39:38;;;;;;;8.40;3.50;;;25.40;58.20;;;;;;6150244;28;86718;-61
2022/08/31 00:42:38;;;;;;;4.30;2.92;;;25.40;57.50;;;;;;6130601;28;80839;-61
2022/08/31 00:45:39;;;;;;;4.25;2.75;;;25.40;57.50;;;;;;6132134;28;81177;-61
2022/08/31 00:48:40;;;;;;;5.22;2.97;;;25.40;57.60;;;;;;6141955;28;81350;-61
2022/08/31 00:51:40;;;;;;;5.38;2.55;;;25.40;57.70;;;;;;6145097;28;83581;-61
2022/08/31 00:54:41;;;;;;;5.30;2.30;;;25.40;57.70;;;;;;6151856;28;80653;-61
2022/08/31 00:57:41;;;;;;;5.00;3.13;;;25.40;57.60;;;;;;6137837;28;83213;-61
2022/08/31 01:00:43;;;;;;;3.40;2.60;;;25.40;57.50;;;;;;6135187;28;83682;-62
2022/08/31 01:03:44;;;;;;;4.70;3.05;;;25.40;57.50;;;;;;6137290;28;83888;-61
2022/08/31 01:06:44;;;;;;;4.13;2.83;;;25.40;57.50;;;;;;6140704;28;80340;-61
2022/08/31 01:09:45;;;;;;;5.40;3.20;;;25.30;57.50;;;;;;6139350;28;80640;-57
2022/08/31 01:12:46;;;;;;;4.10;2.90;;;25.30;57.50;;;;;;6135942;28;80306;-57
2022/08/31 01:15:46;;;;;;;2.88;2.40;;;25.40;57.40;;;;;;6146177;28;80542;-57
2022/08/31 01:18:47;;;;;;;4.55;2.88;;;25.40;57.40;;;;;;6137654;28;80434;-57
2022/08/31 01:21:47;;;;;;;4.50;2.80;;;25.30;57.50;;;;;;6130264;28;80443;-58
2022/08/31 01:24:48;;;;;;;4.43;2.70;;;25.30;57.50;;;;;;6134941;28;83705;-57
2022/08/31 01:27:48;;;;;;;6.35;2.95;;;25.30;57.60;;;;;;6131817;28;86098;-57
2022/08/31 01:30:49;;;;;;;4.50;2.92;;;25.30;57.70;;;;;;6149101;28;83319;-57
2022/08/31 01:33:49;;;;;;;2.63;2.15;;;25.30;57.80;;;;;;6139656;28;85815;-57
2022/08/31 01:36:50;;;;;;;3.53;2.40;;;25.20;57.70;;;;;;6144715;28;80901;-57
2022/08/31 01:39:52;;;;;;;6.07;2.67;;;25.30;57.70;;;;;;6150388;28;81643;-59
2022/08/31 01:42:52;;;;;;;5.38;2.97;;;25.30;57.70;;;;;;6149417;28;87230;-59
2022/08/31 01:45:53;;;;;;;3.88;2.50;;;25.30;57.70;;;;;;6160664;28;83706;-58
2022/08/31 01:48:54;;;;;;;4.15;2.60;;;25.30;57.70;;;;;;6147761;28;83907;-60
2022/08/31 01:51:54;;;;;;;6.68;3.00;;;25.30;57.60;;;;;;6134448;28;82171;-60
2022/08/31 01:54:55;;;;;;;7.13;3.22;;;25.30;57.50;;;;;;6147158;28;81200;-59
2022/08/31 01:57:55;;;;;;;3.55;2.38;;;25.30;57.60;;;;;;6141082;28;83495;-58
2022/08/31 02:01:15;;;;;;;3.90;2.42;;;25.30;57.60;;;;;;6136303;28;81059;-58
2022/08/31 02:04:16;;;;;;;3.92;2.15;;;25.30;57.60;;;;;;6157436;28;83961;-58
2022/08/31 02:07:16;;;;;;;4.10;2.42;;;25.30;57.60;;;;;;6142415;28;80104;-58
2022/08/31 02:10:18;;;;;;;4.03;2.58;;;25.30;57.50;;;;;;6144402;28;81672;-58
2022/08/31 02:13:18;;;;;;;4.25;2.72;;;25.30;57.60;;;;;;6141621;28;82041;-58
2022/08/31 02:16:19;;;;;;;7.18;2.88;;;25.30;57.60;;;;;;6129545;28;80335;-58
2022/08/31 02:19:19;;;;;;;3.55;2.60;;;25.30;57.60;;;;;;6158656;28;83207;-58
2022/08/31 02:22:20;;;;;;;5.75;2.75;;;25.30;57.50;;;;;;6150683;28;83219;-58
2022/08/31 02:25:20;;;;;;;3.05;2.45;;;25.20;57.40;;;;;;6140181;28;82649;-57
2022/08/31 02:28:21;;;;;;;3.30;2.60;;;25.20;57.50;;;;;;6143984;28;83344;-58
2022/08/31 02:31:22;;;;;;;3.22;2.55;;;25.20;57.50;;;;;;6139016;28;82751;-60
2022/08/31 02:34:28;;;;;;;4.13;2.60;;;25.20;57.50;;;;;;6156473;28;82694;-60
2022/08/31 02:37:29;;;;;;;6.07;3.10;;;25.10;57.50;;;;;;6163179;28;80418;-59
2022/08/31 02:40:29;;;;;;;7.40;3.08;;;25.10;57.40;;;;;;6163518;28;83118;-59
2022/08/31 02:43:30;;;;;;;3.22;2.40;;;25.10;57.40;;;;;;6149135;28;80427;-57
2022/08/31 02:46:30;;;;;;;8.20;2.90;;;25.10;57.50;;;;;;6167419;28;83149;-57
2022/08/31 02:49:54;;;;;;;6.07;2.92;;;25.10;57.50;;;;;;6141783;28;82558;-58
2022/08/31 02:52:55;;;;;;;3.55;2.50;;;25.10;57.50;;;;;;6138768;28;80519;-57
2022/08/31 02:55:56;;;;;;;3.90;2.83;;;25.10;57.40;;;;;;6143418;28;82636;-57
2022/08/31 02:58:57;;;;;;;4.22;2.63;;;25.10;57.60;;;;;;6145792;28;81341;-57
2022/08/31 03:01:58;;;;;;;3.75;2.50;;;25.10;57.50;;;;;;6163696;28;83289;-57
2022/08/31 03:04:59;;;;;;;3.78;2.60;;;25.10;57.60;;;;;;6147870;28;83052;-60
2022/08/31 03:08:00;;;;;;;3.60;2.35;;;25.10;57.50;;;;;;6127371;28;83570;-57
2022/08/31 03:11:00;;;;;;;4.35;2.72;;;25.10;57.50;;;;;;6137770;28;83734;-57
2022/08/31 03:14:01;;;;;;;4.55;2.88;;;25.10;57.40;;;;;;6124868;28;80417;-57
2022/08/31 03:17:02;;;;;;;6.03;2.78;;;25.10;57.40;;;;;;6124454;28;81754;-57
2022/08/31 03:20:04;;;;;;;4.32;2.30;;;25.10;57.40;;;;;;6138118;28;82856;-57
2022/08/31 03:23:05;;;;;;;5.75;2.92;;;25.10;57.40;;;;;;6152700;28;83607;-56
2022/08/31 03:26:06;;;;;;;5.63;2.28;;;25.10;57.40;;;;;;6142396;28;84196;-56
2022/08/31 03:29:06;;;;;;;5.28;2.58;;;25.10;57.40;;;;;;6144256;28;81684;-56
2022/08/31 03:32:09;;;;;;;8.88;3.67;;;25.10;57.40;;;;;;6116485;28;80868;-56
2022/08/31 03:35:12;;;;;;;8.20;3.22;;;25.10;57.40;;;;;;6136437;28;80742;-57
2022/08/31 03:38:12;;;;;;;15.95;4.88;;;25.10;57.30;;;;;;6145187;28;82811;-57
2022/08/31 03:41:13;;;;;;;11.50;4.90;;;25.00;57.40;;;;;;6150168;28;83399;-56
2022/08/31 03:44:14;;;;;;;16.38;5.35;;;25.00;57.10;;;;;;6132248;28;83005;-57
2022/08/31 03:47:18;;;;;;;9.05;4.00;;;25.00;57.00;;;;;;6129969;28;83109;-57
2022/08/31 03:50:19;;;;;;;12.88;5.72;;;25.00;57.10;;;;;;6151679;28;86098;-62
2022/08/31 03:53:40;;;;;;;18.60;5.40;;;25.00;56.80;;;;;;6117154;28;81255;-60
2022/08/31 03:56:40;;;;;;;17.25;5.25;;;25.00;56.90;;;;;;6124704;28;82946;-64
2022/08/31 03:59:41;;;;;;;12.57;5.20;;;25.00;57.00;;;;;;6125684;28;83541;-60
2022/08/31 04:02:58;;;;;;;10.05;5.47;;;25.00;56.90;;;;;;6102064;28;80906;-62
2022/08/31 04:06:04;;;;;;;11.55;4.30;;;25.00;57.20;;;;;;6100166;28;81674;-60
2022/08/31 04:09:23;;;;;;;13.88;5.32;;;25.00;57.20;;;;;;6103526;28;80879;-63
2022/08/31 04:12:42;;;;;;;9.30;4.50;;;25.00;56.80;;;;;;6104382;28;80308;-66
2022/08/31 04:15:59;;;;;;;9.93;4.38;;;25.00;56.90;;;;;;6118131;28;82476;-60
2022/08/31 04:19:18;;;;;;;14.45;5.50;;;25.00;56.90;;;;;;6093025;28;83559;-59
2022/08/31 04:22:33;;;;;;;8.52;4.40;;;25.00;57.00;;;;;;6098841;28;83519;-62
2022/08/31 04:25:56;;;;;;;16.05;4.85;;;25.10;56.90;;;;;;6103822;28;84076;-62
2022/08/31 04:28:57;;;;;;;7.55;4.00;;;25.10;56.50;;;;;;6093370;28;80383;-58
2022/08/31 04:31:57;;;;;;;6.43;3.40;;;25.10;56.70;;;;;;6112687;28;83686;-59
2022/08/31 04:35:00;;;;;;;9.68;4.35;;;25.10;56.80;;;;;;6109591;28;82976;-58
2022/08/31 04:38:01;;;;;;;7.28;3.70;;;25.10;56.70;;;;;;6116975;28;83228;-59
2022/08/31 04:41:02;;;;;;;17.52;5.03;;;25.10;56.70;;;;;;6122772;28;83088;-58
2022/08/31 04:44:02;;;;;;;11.55;3.70;;;25.10;56.80;;;;;;6117809;28;83038;-62
2022/08/31 04:47:03;;;;;;;13.52;3.78;;;25.10;57.00;;;;;;6117153;28;83181;-61
2022/08/31 04:50:04;;;;;;;14.68;3.80;;;25.20;57.20;;;;;;6113564;28;83290;-68
2022/08/31 04:53:05;;;;;;;8.88;3.92;;;25.20;57.20;;;;;;6119453;28;81443;-64
2022/08/31 04:56:08;;;;;;;9.55;3.75;;;25.30;57.30;;;;;;6141876;28;83035;-68
2022/08/31 04:59:09;;;;;;;9.98;3.67;;;25.30;57.60;;;;;;6154423;28;87306;-63
2022/08/31 05:02:17;;;;;;;8.23;3.63;;;25.30;57.60;;;;;;6120813;28;82825;-64
2022/08/31 05:05:24;;;;;;;9.38;3.72;;;25.30;57.60;;;;;;6162881;28;87927;-64
2022/08/31 05:08:24;;;;;;;9.50;3.92;;;25.30;57.70;;;;;;6121896;28;80898;-67
2022/08/31 05:11:25;;;;;;;11.05;3.53;;;25.30;58.40;;;;;;6132756;28;82316;-64
2022/08/31 05:14:26;;;;;;;9.90;4.53;;;25.30;57.80;;;;;;6145821;28;84037;-61
2022/08/31 05:17:32;;;;;;;12.73;3.60;;;25.30;58.00;;;;;;6145433;28;80686;-61
2022/08/31 05:20:33;;;;;;;16.05;4.28;;;25.40;58.20;;;;;;6160704;28;87141;-64
2022/08/31 05:23:34;;;;;;;10.95;3.85;;;25.40;59.10;;;;;;6144818;28;83679;-63
2022/08/31 05:26:35;;;;;;;8.05;4.15;;;25.40;58.50;;;;;;6114107;28;84719;-55
2022/08/31 05:29:35;;;;;;;9.18;4.28;;;25.40;58.50;;;;;;6119545;28;81110;-57
2022/08/31 05:33:01;;;;;;;4.82;3.15;;;25.40;58.70;;;;;;6109126;28;86863;-59
2022/08/31 05:36:02;;;;;;;10.32;3.70;;;25.50;58.60;;;;;;6141230;28;83806;-60
2022/08/31 05:39:02;;;;;;;6.43;3.65;;;25.50;58.80;;;;;;6128025;28;83043;-60
2022/08/31 05:42:03;;;;;;;6.72;3.40;;;25.50;58.70;;;;;;6122038;28;83621;-57
2022/08/31 05:45:04;;;;;;;11.45;3.10;;;25.50;58.30;;;;;;6127596;28;82954;-65
2022/08/31 05:48:04;;;;;;;6.28;3.22;;;25.60;58.40;;;;;;6108652;28;81264;-60
2022/08/31 05:51:07;;;;;;;7.72;3.53;;;25.50;58.40;;;;;;6114324;28;80483;-63
2022/08/31 05:54:09;;;;;;;8.07;2.83;;;25.50;58.20;;;;;;6092720;28;81246;-63
2022/08/31 05:57:10;;;;;;;6.13;2.90;;;25.50;58.40;;;;;;6114829;28;86725;-62
2022/08/31 06:00:10;;;;;;;4.93;3.17;;;25.50;58.50;;;;;;6136608;28;83355;-63
2022/08/31 06:03:16;;;;;;;17.20;4.68;;;25.50;58.70;;;;;;6112733;28;83573;-71
2022/08/31 06:06:16;;;;;;;15.10;4.95;;;25.50;58.60;;;;;;6116631;28;82641;-63
2022/08/31 06:09:17;;;;;;;20.75;5.93;;;25.50;58.70;;;;;;6101683;28;86792;-64
2022/08/31 06:12:19;;;;;;;15.82;5.22;;;25.50;58.80;;;;;;6115819;28;83320;-65
2022/08/31 06:15:19;;;;;;;22.35;4.65;;;25.60;58.90;;;;;;6130443;28;85403;-66
2022/08/31 06:18:20;;;;;;;15.27;4.53;;;25.50;58.50;;;;;;6119237;28;82704;-67
2022/08/31 06:21:21;;;;;;;7.10;3.63;;;25.60;58.20;;;;;;6114400;28;83590;-68
2022/08/31 06:24:21;;;;;;;11.02;2.83;;;25.60;58.30;;;;;;6098861;28;82723;-67
2022/08/31 06:27:23;;;;;;;8.88;3.72;;;25.60;58.00;;;;;;6131401;28;82564;-64
2022/08/31 06:30:26;;;;;;;8.75;3.30;;;25.60;57.80;;;;;;6119495;28;82297;-65
2022/08/31 06:33:26;;;;;;;6.57;2.75;;;25.60;58.50;;;;;;6115940;28;83508;-67
2022/08/31 06:36:37;;;;;;;8.70;3.17;;;25.60;58.90;;;;;;6118854;28;82766;-65
2022/08/31 06:39:56;;;;;;;14.43;3.50;;;25.70;58.80;;;;;;6089333;28;80599;-68
2022/08/31 06:43:06;;;;;;;9.88;2.88;;;25.60;58.80;;;;;;6102096;28;83410;-72
2022/08/31 06:46:25;;;;;;;10.57;3.10;;;25.60;58.70;;;;;;6125071;28;83493;-64
2022/08/31 06:49:36;;;;;;;7.35;3.13;;;25.70;59.70;;;;;;6130781;28;83046;-64
2022/08/31 06:52:37;;;;;;;4.15;2.25;;;25.60;58.80;;;;;;6129745;28;83829;-60
2022/08/31 06:55:52;;;;;;;6.32;2.97;;;25.70;58.70;;;;;;6111140;28;82215;-60
2022/08/31 06:59:11;;;;;;;6.70;2.20;;;25.70;58.60;;;;;;6106334;28;80561;-64
2022/08/31 07:02:34;;;;;;;17.30;2.42;;;25.70;58.50;;;;;;6153362;28;86912;-67
2022/08/31 07:05:34;;;;;;;6.70;2.15;;;25.70;58.80;;;;;;6139102;28;83209;-67
2022/08/31 07:08:35;;;;;;;3.92;1.90;;;25.70;58.90;;;;;;6114663;28;83230;-64
2022/08/31 07:11:36;;;;;;;6.45;2.40;;;25.70;59.00;;;;;;6117158;28;83526;-69
2022/08/31 07:14:36;;;;;;;3.58;2.30;;;25.70;59.00;;;;;;6118592;28;83600;-66
2022/08/31 07:17:38;;;;;;;4.65;1.75;;;25.70;58.50;;;;;;6135780;28;82244;-65
2022/08/31 07:20:40;;;;;;;2.58;1.65;;;25.70;58.40;;;;;;6123698;28;80131;-67
2022/08/31 07:23:43;;;;;;;7.55;2.28;;;25.70;58.20;;;;;;6136930;28;83008;-67
2022/08/31 07:26:48;;;;;;;4.90;2.70;;;25.70;58.40;;;;;;6117721;28;82270;-67
2022/08/31 07:29:54;;;;;;;2.88;2.10;;;25.70;58.00;;;;;;6128350;28;82961;-65
2022/08/31 07:32:55;;;;;;;5.38;2.40;;;25.60;57.90;;;;;;6123652;28;82476;-60
2022/08/31 07:35:55;;;;;;;3.38;2.20;;;25.60;57.80;;;;;;6133363;28;83559;-58
2022/08/31 07:42:25;;;;;;;2.75;2.25;;;25.50;58.40;;;;;;6125127;28;83316;-59
2022/08/31 07:45:26;;;;;;;3.50;2.08;;;25.50;58.00;;;;;;6123883;28;83160;-59
2022/08/31 07:48:28;;;;;;;4.57;1.77;;;25.50;57.70;;;;;;6121848;28;82230;-59
2022/08/31 07:51:58;;;;;;;3.55;2.20;;;25.50;57.70;;;;;;6115985;28;81407;-59
2022/08/31 07:55:11;;;;;;;2.22;1.70;;;25.40;57.40;;;;;;6120747;28;82767;-59
2022/08/31 07:58:33;;;;;;;3.15;2.08;;;25.40;57.40;;;;;;6133267;28;81757;-59
2022/08/31 08:01:36;;;;;;;6.03;2.60;;;25.30;57.30;;;;;;6126886;28;85260;-58
2022/08/31 08:04:41;;;;;;;2.88;2.20;;;25.30;57.40;;;;;;6142432;28;83044;-59
2022/08/31 08:08:04;;;;;;;3.70;2.10;;;25.30;57.60;;;;;;6127347;28;81068;-59
2022/08/31 08:11:23;;;;;;;4.88;2.03;;;25.10;58.70;;;;;;6142065;28;84660;-58
2022/08/31 08:14:53;;;;;;;5.30;1.80;;;24.80;60.10;;;;;;6154648;28;82455;-59
2022/08/31 08:18:23;;;;;;;2.50;1.95;;;24.90;60.20;;;;;;6122894;28;81090;-59
2022/08/31 08:21:27;;;;;;;4.72;2.10;;;25.00;59.40;;;;;;6145591;28;83206;-59
2022/08/31 08:24:28;;;;;;;4.60;2.13;;;25.10;59.00;;;;;;6151126;28;83042;-59
2022/08/31 08:27:58;;;;;;;3.72;1.70;;;25.10;58.90;;;;;;6128510;28;81680;-59
2022/08/31 08:31:03;;;;;;;2.28;1.75;;;25.10;58.90;;;;;;6147462;28;81720;-59
2022/08/31 08:34:05;;;;;;;4.22;1.80;;;25.10;58.90;;;;;;6146455;28;82958;-59
2022/08/31 08:37:07;;;;;;;2.45;1.65;;;25.00;59.00;;;;;;6132550;28;87366;-59
2022/08/31 08:40:08;;;;;;;2.55;2.00;;;25.10;58.90;;;;;;6141750;28;82906;-58
2022/08/31 08:43:11;;;;;;;2.33;1.40;;;25.10;58.60;;;;;;6152559;28;83231;-58
2022/08/31 08:46:13;;;;;;;6.88;1.92;;;25.20;58.60;;;;;;6150188;28;83035;-58
2022/08/31 08:49:14;;;;;;;4.93;2.25;;;25.10;58.50;;;;;;6146379;28;82380;-58
2022/08/31 08:52:15;;;;;;;2.97;1.58;;;25.10;58.50;;;;;;6152438;28;83807;-59
2022/08/31 08:55:15;;;;;;;2.80;1.63;;;25.10;58.50;;;;;;6149345;28;83180;-59
2022/08/31 08:58:18;;;;;;;4.60;1.77;;;25.10;58.50;;;;;;6144379;28;83602;-58
2022/08/31 09:01:20;;;;;;;3.05;1.88;;;25.10;58.70;;;;;;6145699;28;82930;-59
2022/08/31 09:04:21;;;;;;;5.45;1.60;;;25.10;58.40;;;;;;6150587;28;83384;-58
2022/08/31 09:07:31;;;;;;;3.08;1.90;;;25.10;58.40;;;;;;6168303;28;83802;-65
2022/08/31 09:10:34;;;;;;;6.57;2.00;;;25.10;58.10;;;;;;6152399;28;83465;-65
2022/08/31 09:13:35;;;;;;;4.50;2.00;;;25.10;58.10;;;;;;6167617;28;82211;-65
2022/08/31 09:16:39;;;;;;;8.32;2.42;;;25.10;58.00;;;;;;6165654;28;80520;-66
2022/08/31 09:20:00;;;;;;;3.90;1.90;;;25.10;57.70;;;;;;6153246;28;82910;-65
2022/08/31 09:23:06;;;;;;;5.05;1.95;;;25.10;57.60;;;;;;6156409;28;82610;-65
2022/08/31 09:26:10;;;;;;;;;;;25.10;57.60;;;;;;6166308;28;82087;-65
2022/08/31 09:29:26;;;;;;;3.42;2.20;;;25.10;57.80;;;;;;6156928;28;84668;-65
2022/08/31 09:32:27;;;;;;;2.92;2.40;;;25.00;57.70;;;;;;6130981;28;82646;-65
2022/08/31 09:35:28;;;;;;;5.85;2.17;;;25.00;57.90;;;;;;6125647;28;82478;-65
2022/08/31 09:38:28;;;;;;;3.58;2.28;;;25.00;58.20;;;;;;6133871;28;80486;-63
2022/08/31 09:41:32;;;;;;;4.65;2.05;;;24.90;57.80;;;;;;6152386;28;80878;-66
2022/08/31 09:44:33;;;;;;;7.63;2.25;;;24.80;58.30;;;;;;6134748;28;80268;-63
2022/08/31 09:47:44;;;;;;;6.88;2.40;;;24.90;59.00;;;;;;6130258;28;85563;-66
2022/08/31 09:50:44;;;;;;;5.60;2.40;;;24.80;58.20;;;;;;6116162;28;80421;-64
2022/08/31 09:57:04;;;;;;;3.83;2.30;;;24.80;57.50;;;;;;6122870;28;80589;-65
2022/08/31 10:00:04;;;;;;;3.85;2.25;;;24.90;57.80;;;;;;6126997;28;86108;-65
2022/08/31 10:03:17;;;;;;;2.80;1.98;;;24.90;57.90;;;;;;6128270;28;80861;-58
2022/08/31 10:06:18;;;;;;;3.35;2.60;;;25.00;57.80;;;;;;6123117;28;80054;-58
2022/08/31 10:09:18;;;;;;;2.83;2.10;;;25.00;57.50;;;;;;6125497;28;80825;-58
2022/08/31 10:12:18;;;;;;;3.85;2.13;;;24.90;57.60;;;;;;6119484;28;80888;-58
2022/08/31 10:15:19;;;;;;;3.65;2.15;;;24.90;57.50;;;;;;6114245;28;84157;-58
2022/08/31 10:18:19;;;;;;;5.13;2.42;;;24.90;57.20;;;;;;6111123;28;80362;-58
2022/08/31 10:21:20;;;;;;;2.58;1.75;;;24.90;57.10;;;;;;6116745;28;80716;-58
2022/08/31 10:24:27;;;;;;;4.63;1.95;;;24.80;57.20;;;;;;6123731;28;81314;-57
2022/08/31 10:27:37;;;;;;;3.42;1.60;;;24.80;57.20;;;;;;6124485;28;83717;-58
2022/08/31 10:30:37;;;;;;;4.10;2.15;;;24.80;57.20;;;;;;6126708;28;80204;-58
2022/08/31 10:36:58;;;;;;;4.05;2.67;;;24.80;57.40;;;;;;6118455;28;87523;-58
2022/08/31 10:39:59;;;;;;;6.95;2.25;;;24.90;57.50;;;;;;6128271;28;80094;-58
2022/08/31 10:43:00;;;;;;;6.70;2.15;;;24.90;57.50;;;;;;6128566;28;80832;-58
2022/08/31 10:46:02;;;;;;;5.15;2.10;;;24.90;57.50;;;;;;6125642;28;88192;-57
2022/08/31 10:49:03;;;;;;;3.40;2.40;;;24.90;57.10;;;;;;6128371;28;80295;-58
2022/08/31 10:52:04;;;;;;;2.10;1.75;;;24.90;57.10;;;;;;6103083;28;81012;-58
2022/08/31 10:55:06;;;;;;;3.38;2.10;;;24.90;57.10;;;;;;6104945;28;82115;-58
2022/08/31 10:58:06;;;;;;;2.85;1.77;;;25.00;57.20;;;;;;6116623;28;83010;-58
2022/08/31 11:01:07;;;;;;;4.35;2.00;;;25.00;57.10;;;;;;6115365;28;81172;-58
2022/08/31 11:04:07;;;;;;;2.90;1.80;;;25.00;56.60;;;;;;6111551;28;80392;-58
2022/08/31 11:07:10;;;;;;;1.80;1.42;;;25.00;55.90;;;;;;6117842;28;85182;-57
2022/08/31 11:10:11;;;;;;;4.60;2.08;;;24.90;55.20;;;;;;6114437;28;80565;-58
2022/08/31 11:13:13;;;;;;;5.90;1.85;;;24.90;54.90;;;;;;6115929;28;81144;-57
2022/08/31 11:16:16;;;;;;;3.05;2.25;;;24.90;54.90;;;;;;6113916;28;80727;-66
2022/08/31 11:19:16;;;;;;;3.67;2.00;;;25.00;54.70;;;;;;6103750;28;80660;-65
2022/08/31 11:22:17;;;;;;;3.15;1.83;;;25.10;54.90;;;;;;6099742;28;81707;-59
2022/08/31 11:25:17;;;;;;;4.88;2.13;;;25.10;55.30;;;;;;6102378;28;80884;-64
2022/08/31 11:28:27;;;;;;;3.72;2.22;;;25.10;55.80;;;;;;6114145;28;80494;-65
2022/08/31 11:31:29;;;;;;;4.45;2.45;;;25.20;55.90;;;;;;6111312;28;80437;-66
2022/08/31 11:34:29;;;;;;;7.10;2.35;;;25.30;55.60;;;;;;6111407;28;80922;-66
2022/08/31 11:37:30;;;;;;;8.15;2.58;;;25.30;55.50;;;;;;6111653;28;80987;-67
2022/08/31 11:40:30;;;;;;;11.13;2.67;;;25.40;55.40;;;;;;6125843;28;81014;-66
2022/08/31 11:43:31;;;;;;;6.35;3.60;;;25.30;55.20;;;;;;6115541;28;80235;-68
2022/08/31 11:46:31;;;;;;;10.70;3.65;;;25.40;55.60;;;;;;6112757;28;80012;-63
2022/08/31 11:49:33;;;;;;;8.85;2.92;;;25.40;55.60;;;;;;6122124;28;80939;-65
2022/08/31 11:52:34;;;;;;;9.48;2.15;;;25.50;55.50;;;;;;6118792;28;80444;-58
2022/08/31 11:55:37;;;;;;;4.35;1.80;;;25.60;55.30;;;;;;6119126;28;81134;-58
2022/08/31 11:58:38;;;;;;;2.35;1.70;;;25.70;53.50;;;;;;6113700;28;80246;-58
2022/08/31 12:01:41;;;;;;;3.03;2.13;;;25.70;53.00;;;;;;6126096;28;83536;-58
2022/08/31 12:04:44;;;;;;;3.25;1.75;;;25.70;53.30;;;;;;6111444;28;83560;-59
2022/08/31 12:07:46;;;;;;;4.78;1.63;;;25.80;53.40;;;;;;6116851;28;80361;-58
2022/08/31 12:10:46;;;;;;;4.75;1.70;;;25.80;52.50;;;;;;6122496;28;80989;-58
2022/08/31 12:13:48;;;;;;;4.22;1.60;;;25.80;52.60;;;;;;6095453;28;84467;-60
2022/08/31 12:16:48;;;;;;;3.00;1.80;;;25.80;52.60;;;;;;6095603;28;83515;-59
2022/08/31 12:20:01;;;;;;;4.05;1.60;;;25.90;52.80;;;;;;6086603;28;80421;-59
2022/08/31 12:26:21;;;;;;;2.47;1.70;;;25.90;53.40;;;;;;6142767;28;86817;-58
2022/08/31 12:29:22;;;;;;;5.00;2.00;;;25.90;53.40;;;;;;6133488;28;83853;-59
2022/08/31 12:32:22;;;;;;;7.07;2.03;;;25.80;53.20;;;;;;6130258;28;80319;-58
2022/08/31 12:35:23;;;;;;;2.42;1.40;;;25.80;52.30;;;;;;6129137;28;80434;-59
2022/08/31 12:38:25;;;;;;;4.28;1.45;;;25.70;51.60;;;;;;6131469;28;80060;-59
2022/08/31 12:41:25;;;;;;;2.75;1.60;;;25.70;51.50;;;;;;6118440;28;80969;-58
2022/08/31 12:44:26;;;;;;;2.63;1.50;;;25.70;51.30;;;;;;6107013;28;80503;-59
2022/08/31 12:47:26;;;;;;;5.72;1.83;;;25.70;51.40;;;;;;6115657;28;80508;-61
2022/08/31 12:50:27;;;;;;;3.75;1.58;;;25.70;51.70;;;;;;6108825;28;85147;-58
2022/08/31 12:53:27;;;;;;;3.78;1.77;;;25.70;51.10;;;;;;6116931;28;81307;-60
2022/08/31 12:56:28;;;;;;;2.92;1.58;;;25.60;51.50;;;;;;6105227;28;80173;-60
2022/08/31 12:59:28;;;;;;;5.68;1.90;;;25.60;51.80;;;;;;6117708;28;81323;-60
2022/08/31 13:02:28;;;;;;;1.45;1.25;;;25.70;51.90;;;;;;6116770;28;80336;-60
2022/08/31 13:05:29;;;;;;;2.95;1.40;;;25.60;51.50;;;;;;6103814;28;88236;-60
2022/08/31 13:08:29;;;;;;;1.98;1.40;;;25.60;51.20;;;;;;6119495;28;81469;-61
2022/08/31 13:11:30;;;;;;;5.57;1.77;;;25.60;50.80;;;;;;6106881;28;81272;-58
2022/08/31 13:14:31;;;;;;;4.68;2.00;;;25.60;50.40;;;;;;6116386;28;81575;-61
2022/08/31 13:17:31;;;;;;;1.75;1.30;;;25.60;50.30;;;;;;6128175;28;81127;-58
2022/08/31 13:20:32;;;;;;;2.83;1.95;;;25.50;50.10;;;;;;6122816;28;80890;-58
2022/08/31 13:23:39;;;;;;;3.03;1.77;;;25.50;50.10;;;;;;6119709;28;80290;-60
2022/08/31 13:26:41;;;;;;;2.85;1.55;;;25.50;50.70;;;;;;6130837;28;80583;-68
2022/08/31 13:29:45;;;;;;;2.70;2.05;;;25.50;50.80;;;;;;6127577;28;80325;-66
2022/08/31 13:32:48;;;;;;;2.80;2.05;;;25.50;51.10;;;;;;6128103;28;81395;-68
2022/08/31 13:35:49;;;;;;;2.40;1.90;;;25.50;51.30;;;;;;6121820;28;81099;-68
2022/08/31 13:38:50;;;;;;;1.88;1.40;;;25.50;51.20;;;;;;6129977;28;83476;-67
2022/08/31 13:41:53;;;;;;;2.85;1.60;;;25.60;51.40;;;;;;6129708;28;81776;-65
2022/08/31 13:44:53;;;;;;;2.97;1.80;;;25.50;51.30;;;;;;6112539;28;80915;-64
2022/08/31 13:47:54;;;;;;;2.88;1.70;;;25.50;51.20;;;;;;6123424;28;83555;-66
2022/08/31 13:50:55;;;;;;;4.20;2.10;;;25.60;51.70;;;;;;6102735;28;83267;-68
2022/08/31 13:53:55;;;;;;;5.30;2.05;;;25.60;52.60;;;;;;6110007;28;81991;-67
2022/08/31 13:56:57;;;;;;;3.67;1.67;;;25.70;52.00;;;;;;6121583;28;80943;-68
2022/08/31 14:00:04;;;;;;;7.50;1.75;;;25.70;51.70;;;;;;6124486;28;83298;-67
2022/08/31 14:03:14;;;;;;;3.70;2.10;;;25.70;51.20;;;;;;6120172;28;83224;-60
2022/08/31 14:06:15;;;;;;;7.10;2.58;;;25.60;50.90;;;;;;6120991;28;83845;-60
2022/08/31 14:09:15;;;;;;;5.93;2.28;;;25.70;51.50;;;;;;6118354;28;80378;-61
2022/08/31 14:12:16;;;;;;;2.30;1.73;;;25.70;51.30;;;;;;6123274;28;80620;-60
2022/08/31 14:15:17;;;;;;;3.38;1.75;;;25.70;50.90;;;;;;6118271;28;80900;-60
2022/08/31 14:18:17;;;;;;;3.67;1.73;;;25.70;50.70;;;;;;6137494;28;80720;-61
2022/08/31 14:21:18;;;;;;;6.93;1.80;;;25.70;50.60;;;;;;6103904;28;86942;-68
2022/08/31 14:24:19;;;;;;;3.15;2.03;;;25.70;50.70;;;;;;6098019;28;82319;-67
2022/08/31 14:27:19;;;;;;;3.58;1.80;;;25.70;50.60;;;;;;6124386;28;81273;-65
2022/08/31 14:30:20;;;;;;;7.03;1.90;;;25.60;51.00;;;;;;6133021;28;80929;-65
2022/08/31 14:33:22;;;;;;;2.88;1.90;;;25.60;50.70;;;;;;6120849;28;81684;-67
2022/08/31 14:36:23;;;;;;;11.32;1.65;;;25.60;49.50;;;;;;6120269;28;80245;-67
2022/08/31 14:39:23;;;;;;;10.23;1.65;;;25.60;49.30;;;;;;6119139;28;80450;-67
2022/08/31 14:42:25;;;;;;;2.17;1.55;;;25.60;49.20;;;;;;6122707;28;80419;-68
2022/08/31 14:45:25;;;;;;;5.50;1.65;;;25.50;49.30;;;;;;6130416;28;81345;-68
2022/08/31 14:48:27;;;;;;;4.85;2.03;;;25.50;49.20;;;;;;6115731;28;81128;-67
2022/08/31 14:51:29;;;;;;;3.47;1.20;;;25.50;48.40;;;;;;6113784;28;80990;-67
2022/08/31 14:54:33;;;;;;;5.45;2.10;;;25.50;47.90;;;;;;6117550;28;80770;-70
2022/08/31 14:57:34;;;;;;;10.30;1.73;;;25.50;47.80;;;;;;6120083;28;80883;-69
2022/08/31 15:00:34;;;;;;;5.82;1.83;;;25.40;47.70;;;;;;6127169;28;87933;-65
2022/08/31 15:03:38;;;;;;;12.52;1.73;;;25.40;47.70;;;;;;6096255;28;82499;-70
2022/08/31 15:06:39;;;;;;;3.17;1.70;;;25.40;47.90;;;;;;6108121;28;81473;-70
2022/08/31 15:09:40;;;;;;;2.53;1.77;;;25.40;47.90;;;;;;6118857;28;82159;-70
2022/08/31 15:12:41;;;;;;;4.57;2.20;;;25.30;47.40;;;;;;6119957;28;80477;-70
2022/08/31 15:15:41;;;;;;;1.50;1.20;;;25.30;47.70;;;;;;6116770;28;80273;-61
2022/08/31 15:18:42;;;;;;;1.88;1.40;;;25.30;47.60;;;;;;6118862;28;86669;-62
2022/08/31 15:21:49;;;;;;;2.20;1.33;;;25.30;47.40;;;;;;6112293;28;86706;-62
2022/08/31 15:24:50;;;;;;;5.97;1.25;;;25.30;47.40;;;;;;6114643;28;80672;-62
2022/08/31 15:27:50;;;;;;;4.18;1.65;;;25.30;47.60;;;;;;6104791;28;80552;-62
2022/08/31 15:30:51;;;;;;;2.30;1.77;;;25.30;47.70;;;;;;6119403;28;81204;-61
2022/08/31 15:33:54;;;;;;;2.72;1.58;;;25.20;48.30;;;;;;6130444;28;80411;-60
2022/08/31 15:36:54;;;;;;;2.28;1.40;;;25.20;48.30;;;;;;6122607;28;86510;-61
2022/08/31 15:39:55;;;;;;;3.38;1.70;;;25.20;48.80;;;;;;6121222;28;83886;-58
2022/08/31 15:42:56;;;;;;;5.60;1.65;;;25.20;49.20;;;;;;6145545;28;81399;-60
2022/08/31 15:45:56;;;;;;;1.92;1.55;;;25.20;49.30;;;;;;6128709;28;83579;-59
2022/08/31 15:48:57;;;;;;;5.72;1.85;;;25.20;49.50;;;;;;6129064;28;87072;-61
2022/08/31 15:51:57;;;;;;;7.00;1.58;;;25.30;49.50;;;;;;6109311;28;84217;-60
2022/08/31 15:54:58;;;;;;;6.70;1.65;;;25.20;49.50;;;;;;6127176;28;80519;-58
2022/08/31 15:58:02;;;;;;;6.95;1.88;;;25.30;49.70;;;;;;6111019;28;86372;-60
2022/08/31 16:01:03;;;;;;;3.50;1.50;;;25.30;49.70;;;;;;6125713;28;80507;-58
2022/08/31 16:04:03;;;;;;;1.75;1.50;;;25.20;49.50;;;;;;6127460;28;82154;-61
2022/08/31 16:07:06;;;;;;;6.68;1.70;;;25.20;49.30;;;;;;6123954;28;81479;-59
2022/08/31 16:10:11;;;;;;;2.53;1.58;;;25.20;49.60;;;;;;6120946;28;80516;-59